createdAt,value
2023-03-16T00:00:49.874Z,94028.98
2023-03-16T00:03:16.222Z,94031.56
2023-03-16T00:05:42.591Z,94035.93
2023-03-16T00:08:08.933Z,94030.91
2023-03-16T00:10:35.313Z,94038.28
2023-03-16T00:13:01.665Z,94041.49
2023-03-16T00:15:28.054Z,94034.11
2023-03-16T00:17:54.395Z,94045.36
2023-03-16T00:20:20.776Z,94039.27
2023-03-16T00:22:47.144Z,94045.36
2023-03-16T00:25:13.529Z,94045.01
2023-03-16T00:27:39.875Z,94049.03
2023-03-16T00:30:06.252Z,94051.60
2023-03-16T00:32:32.660Z,94055.13
2023-03-16T00:34:58.999Z,94054.46
2023-03-16T00:37:25.372Z,94048.50
2023-03-16T00:39:51.714Z,94061.21
2023-03-16T00:42:18.065Z,94060.20
2023-03-16T00:44:44.446Z,94064.41
2023-03-16T00:47:10.791Z,94064.57
2023-03-16T00:49:37.176Z,94065.86
2023-03-16T00:52:03.522Z,94067.27
2023-03-16T00:54:29.922Z,94070.66
2023-03-16T00:56:56.282Z,94069.97
2023-03-16T00:59:22.667Z,94074.65
2023-03-16T01:01:49.018Z,94069.31
2023-03-16T01:04:15.419Z,94080.42
2023-03-16T01:06:41.755Z,94078.31
2023-03-16T01:09:08.234Z,94074.61
2023-03-16T01:11:34.570Z,94074.61
2023-03-16T01:14:01.010Z,94066.08
2023-03-16T01:16:27.373Z,94070.06
2023-03-16T01:18:53.768Z,94067.14
2023-03-16T01:21:20.133Z,94068.58
2023-03-16T01:23:46.535Z,94064.84
2023-03-16T01:26:12.913Z,94066.01
2023-03-16T01:28:39.322Z,94070.34
2023-03-16T01:31:05.727Z,94069.68
2023-03-16T01:33:32.038Z,94075.64
2023-03-16T01:35:58.420Z,94075.77
2023-03-16T01:38:24.777Z,94074.95
2023-03-16T01:40:51.121Z,94076.23
2023-03-16T01:43:17.519Z,94075.92
2023-03-16T01:45:43.859Z,94080.09
2023-03-16T01:48:11.967Z,94082.02
2023-03-16T01:50:36.660Z,94085.18
2023-03-16T01:53:03.064Z,94082.14
2023-03-16T01:55:29.402Z,94087.75
2023-03-16T01:57:55.843Z,94080.19
2023-03-16T02:00:22.235Z,94091.77
2023-03-16T02:02:48.620Z,94095.63
2023-03-16T02:05:15.036Z,94093.68
2023-03-16T02:07:41.447Z,94103.16
2023-03-16T02:10:07.781Z,94107.83
2023-03-16T02:12:34.172Z,94105.38
2023-03-16T02:15:00.525Z,94101.17
2023-03-16T02:17:27.010Z,94107.48
2023-03-16T02:19:53.325Z,94109.05
2023-03-16T02:22:19.726Z,94115.80
2023-03-16T02:24:46.068Z,94119.81
2023-03-16T02:27:12.456Z,94119.47
2023-03-16T02:29:38.809Z,94126.34
2023-03-16T02:32:05.260Z,94135.34
2023-03-16T02:34:31.609Z,94130.20
2023-03-16T02:36:57.997Z,94135.84
2023-03-16T02:39:24.340Z,94139.48
2023-03-16T02:41:50.733Z,94141.73
2023-03-16T02:44:17.070Z,94139.02
2023-03-16T02:46:43.661Z,94144.16
2023-03-16T02:49:09.835Z,94145.13
2023-03-16T02:51:36.228Z,94144.78
2023-03-16T02:54:02.558Z,94147.95
2023-03-16T02:56:28.948Z,94143.30
2023-03-16T02:58:55.285Z,94144.91
2023-03-16T03:01:21.684Z,94150.32
2023-03-16T03:03:48.051Z,94153.71
2023-03-16T03:06:14.449Z,94154.53
2023-03-16T03:08:40.796Z,94155.73
2023-03-16T03:11:07.176Z,94164.63
2023-03-16T03:13:33.522Z,94161.97
2023-03-16T03:15:59.921Z,94161.63
2023-03-16T03:18:26.260Z,94168.88
2023-03-16T03:20:52.642Z,94165.48
2023-03-16T03:23:20.185Z,94161.78
2023-03-16T03:25:45.381Z,94163.88
2023-03-16T03:28:11.719Z,94166.92
2023-03-16T03:30:38.092Z,94166.77
2023-03-16T03:33:04.493Z,94178.03
2023-03-16T03:35:30.859Z,94174.77
2023-03-16T03:37:57.181Z,94171.09
2023-03-16T03:40:23.562Z,94181.20
2023-03-16T03:42:49.943Z,94181.66
2023-03-16T03:45:16.342Z,94183.30
2023-03-16T03:47:42.665Z,94186.80
2023-03-16T03:50:09.047Z,94191.95
2023-03-16T03:52:35.390Z,94200.02
2023-03-16T03:55:01.784Z,94200.02
2023-03-16T03:57:28.131Z,94201.92
2023-03-16T03:59:54.509Z,94216.55
2023-03-16T04:02:20.975Z,94213.03
2023-03-16T04:04:48.731Z,94218.03
2023-03-16T04:07:13.599Z,94213.35
2023-03-16T04:09:39.966Z,94207.39
2023-03-16T04:12:06.328Z,94213.03
2023-03-16T04:14:32.702Z,94210.78
2023-03-16T04:16:59.085Z,94214.98
2023-03-16T04:19:25.432Z,94208.55
2023-03-16T04:21:51.784Z,94218.18
2023-03-16T04:24:18.201Z,94216.94
2023-03-16T04:26:44.537Z,94219.20
2023-03-16T04:29:10.933Z,94226.41
2023-03-16T04:31:37.279Z,94224.34
2023-03-16T04:34:03.700Z,94237.99
2023-03-16T04:36:30.053Z,94242.35
2023-03-16T04:38:56.435Z,94245.71
2023-03-16T04:41:22.773Z,94249.10
2023-03-16T04:43:50.984Z,94247.34
2023-03-16T04:46:16.793Z,94252.96
2023-03-16T04:48:41.911Z,94255.73
2023-03-16T04:51:08.262Z,94264.74
2023-03-16T04:53:34.681Z,94269.77
2023-03-16T04:56:00.997Z,94274.18
2023-03-16T04:58:27.418Z,94283.02
2023-03-16T05:00:53.769Z,94276.12
2023-03-16T05:03:20.193Z,94284.66
2023-03-16T05:05:46.580Z,94287.11
2023-03-16T05:08:12.942Z,94285.88
2023-03-16T05:10:39.293Z,94289.97
2023-03-16T05:13:05.681Z,94294.15
2023-03-16T05:15:32.020Z,94302.69
2023-03-16T05:17:58.440Z,94299.64
2023-03-16T05:20:24.779Z,94299.77
2023-03-16T05:22:51.180Z,94303.97
2023-03-16T05:25:17.516Z,94307.48
2023-03-16T05:27:43.896Z,94312.98
2023-03-16T05:30:11.367Z,94309.59
2023-03-16T05:32:37.831Z,94312.16
